TimeCDT,TemperatureF,Dew PointF,Humidity,Sea Level PressureIn,VisibilityMPH,Wind Direction,Wind SpeedMPH,Gust SpeedMPH,PrecipitationIn,Events,Conditions,WindDirDegrees,DateUTC
12:53 AM,30.0,8.1,40,30.22,10.0,SW,6.9,-,N/A,,Clear,230,2014-03-13 05:53:00
1:53 AM,30.0,9.0,41,30.20,10.0,WSW,5.8,-,N/A,,Clear,240,2014-03-13 06:53:00
2:53 AM,28.9,10.9,47,30.19,10.0,SW,5.8,-,N/A,,Clear,230,2014-03-13 07:53:00
3:53 AM,28.0,10.9,49,30.17,10.0,SW,8.1,-,N/A,,Clear,230,2014-03-13 08:53:00
4:53 AM,30.0,12.0,47,30.13,10.0,WSW,9.2,-,N/A,,Clear,240,2014-03-13 09:53:00
5:53 AM,30.0,12.0,47,30.12,10.0,WSW,9.2,-,N/A,,Clear,240,2014-03-13 10:53:00
6:53 AM,33.1,12.9,43,30.12,10.0,SW,6.9,-,N/A,,Clear,230,2014-03-13 11:53:00
7:53 AM,28.0,12.0,51,30.13,10.0,SSW,3.5,-,N/A,,Clear,210,2014-03-13 12:53:00
8:53 AM,37.0,14.0,39,30.12,10.0,WSW,11.5,-,N/A,,Clear,240,2014-03-13 13:53:00
9:53 AM,48.0,16.0,28,30.10,10.0,WSW,17.3,-,N/A,,Clear,240,2014-03-13 14:53:00
10:53 AM,55.0,16.0,22,30.09,10.0,SW,21.9,26.5,N/A,,Clear,220,2014-03-13 15:53:00
11:53 AM,61.0,15.1,17,30.05,10.0,SSW,24.2,27.6,N/A,,Clear,210,2014-03-13 16:53:00
12:53 PM,64.0,14.0,14,29.99,10.0,South,23.0,31.1,N/A,,Clear,190,2014-03-13 17:53:00
1:53 PM,66.0,10.9,12,29.94,10.0,SSW,32.2,38.0,N/A,,Clear,210,2014-03-13 18:53:00
2:53 PM,70.0,16.0,13,29.88,10.0,SW,29.9,39.1,N/A,,Partly Cloudy,220,2014-03-13 19:53:00
3:53 PM,71.1,15.1,12,29.84,10.0,SW,25.3,36.8,N/A,,Scattered Clouds,230,2014-03-13 20:53:00
4:53 PM,71.1,14.0,11,29.80,10.0,SSW,24.2,34.5,N/A,,Partly Cloudy,210,2014-03-13 21:53:00
5:53 PM,71.1,12.0,10,29.77,10.0,SSW,25.3,34.5,N/A,,Partly Cloudy,210,2014-03-13 22:53:00
6:53 PM,69.1,12.0,11,29.75,10.0,SSW,27.6,33.4,N/A,,Clear,210,2014-03-13 23:53:00
7:53 PM,63.0,15.1,16,29.77,10.0,SSW,18.4,-,N/A,,Clear,210,2014-03-14 00:53:00
8:53 PM,57.0,16.0,20,29.76,10.0,South,11.5,-,N/A,,Clear,190,2014-03-14 01:53:00
9:53 PM,54.0,17.1,23,29.75,10.0,SSW,13.8,-,N/A,,Clear,200,2014-03-14 02:53:00
10:53 PM,53.1,19.0,26,29.75,10.0,SSW,16.1,-,N/A,,Clear,200,2014-03-14 03:53:00
11:53 PM,54.0,19.9,26,29.73,10.0,SSW,17.3,-,N/A,,Clear,200,2014-03-14 04:53:00